Terminal Aerodrome Forecast
Issued by NWS

Home | Current Version | Previous Version | Text Only | Print | Product List | Glossary On
Versions: 1 2 3 4 5 6 7 8 9 10 11 12 13 14 15 16 17 18
000
FTUS44 KHGX 211819 CCB
TAFCXO
TAF COR
KCXO 211819Z 2118/2218 13012KT P6SM FEW015 BKN025 BKN035
     FM212000 13010KT P6SM VCSH BKN025 BKN040
     FM212200 13006KT P6SM VCTS BKN025CB BKN060
      TEMPO 2123/2203 VRB15G25KT 3SM TSRA SCT015CB BKN025 BKN060
     FM220700 20008KT P6SM VCSH BKN015 BKN035
     FM221100 31009KT P6SM SCT015
     FM221500 32012KT P6SM SKC=

USA.gov is the U.S. government's official web portal to all federal, state and local government web resources and services.